Time;durP1;ratioP1;P1;durP2;ratioP2;P2;SDS_P1;SDS_P2;PMS_P1;PMS_P2;Temp;Humidity;BMP_temperature;BMP_pressure;BME280_temperature;BME280_humidity;BME280_pressure;Samples;Min_cycle;Max_cycle;Signal;HPM_P1;HPM_P2
2022/06/20 00:00:16;;;;;;;7.00;4.72;;;21.10;1.40;;;22.21;100.00;94712.30;645285;216;31772;-74
2022/06/20 00:02:59;;;;;;;7.70;4.43;;;21.00;1.40;;;22.19;100.00;94709.27;651983;216;31571;-76
2022/06/20 00:05:40;;;;;;;6.15;3.97;;;21.00;1.40;;;22.20;100.00;94707.98;648029;212;31581;-75
2022/06/20 00:08:22;;;;;;;5.32;3.97;;;21.00;1.40;;;22.04;100.00;94705.48;648642;216;31681;-75
2022/06/20 00:11:04;;;;;;;6.32;3.80;;;20.70;1.40;;;21.93;100.00;94700.04;644528;216;32054;-75
2022/06/20 00:13:46;;;;;;;5.65;4.30;;;20.60;1.40;;;21.87;100.00;94700.45;646026;216;31711;-75
2022/06/20 00:16:28;;;;;;;4.07;3.60;;;20.60;1.40;;;21.84;100.00;94695.89;620694;226;32072;-75
2022/06/20 00:19:09;;;;;;;4.10;3.40;;;20.50;1.40;;;21.81;100.00;94698.55;650809;216;32198;-75
2022/06/20 00:21:51;;;;;;;3.90;3.50;;;20.60;1.40;;;21.80;100.00;94690.59;644338;216;31584;-75
2022/06/20 00:24:33;;;;;;;5.90;3.20;;;20.50;1.40;;;21.77;100.00;94693.98;646154;212;31605;-75
2022/06/20 00:27:14;;;;;;;7.82;4.03;;;20.40;1.40;;;21.85;100.00;94690.77;650919;216;31640;-76
2022/06/20 00:29:56;;;;;;;4.95;4.00;;;20.70;1.40;;;21.98;100.00;94693.58;648964;216;31557;-75
2022/06/20 00:32:38;;;;;;;8.13;4.40;;;21.00;1.40;;;22.10;100.00;94690.52;625322;226;32420;-75
2022/06/20 00:35:53;;;;;;;11.05;4.32;;;21.10;1.40;;;22.20;100.00;94692.58;649504;216;31540;-75
2022/06/20 00:38:35;;;;;;;9.38;4.43;;;21.20;1.40;;;22.28;100.00;94690.47;648035;216;31571;-75
2022/06/20 00:41:16;;;;;;;5.78;4.20;;;21.30;1.40;;;22.35;100.00;94691.81;644187;216;31787;-75
2022/06/20 00:43:57;;;;;;;4.82;3.50;;;21.40;1.40;;;22.35;100.00;94692.50;646472;212;31622;-76
2022/06/20 00:46:45;;;;;;;6.03;3.90;;;21.30;1.40;;;22.26;100.00;94689.53;645940;216;32022;-75
2022/06/20 00:49:31;;;;;;;5.97;3.95;;;21.10;1.40;;;22.16;100.00;94693.34;648146;212;31833;-76
2022/06/20 00:52:23;;;;;;;8.55;4.30;;;21.00;1.40;;;22.04;100.00;94690.58;644359;216;31848;-75
2022/06/20 00:55:33;;;;;;;4.68;3.40;;;20.90;1.40;;;21.92;100.00;94686.35;618626;226;32222;-75
2022/06/20 00:58:31;;;;;;;8.77;4.78;;;20.70;1.40;;;21.86;100.00;94688.75;648229;216;31832;-75
2022/06/20 01:01:13;;;;;;;7.25;3.45;;;20.70;1.40;;;21.79;100.00;94686.41;645847;216;31580;-75
2022/06/20 01:03:55;;;;;;;5.57;3.58;;;20.60;1.40;;;21.61;100.00;94694.56;650013;212;31711;-75
2022/06/20 01:06:37;;;;;;;5.90;4.07;;;20.50;1.40;;;21.55;100.00;94694.94;649415;212;32163;-75
2022/06/20 01:09:18;;;;;;;7.53;4.20;;;20.40;1.40;;;21.51;100.00;94701.59;647583;216;32078;-75
2022/06/20 01:12:02;;;;;;;7.05;3.90;;;20.30;1.40;;;21.48;100.00;94703.71;646873;216;31769;-75
2022/06/20 01:14:42;;;;;;;4.60;4.20;;;20.30;1.40;;;21.41;100.00;94704.31;646579;216;31872;-75
2022/06/20 01:17:35;;;;;;;8.50;3.50;;;20.30;1.40;;;21.36;100.00;94700.84;651465;216;31653;-75
2022/06/20 01:20:20;;;;;;;5.68;4.47;;;20.30;1.40;;;21.34;100.00;94697.19;623932;226;32128;-75
2022/06/20 01:25:38;;;;;;;8.80;4.77;;;20.40;1.40;;;21.43;100.00;94701.88;648513;212;31576;-76
2022/06/20 01:28:21;;;;;;;6.97;4.30;;;20.40;1.40;;;21.50;100.00;94701.09;646449;216;31920;-75
2022/06/20 01:31:03;;;;;;;9.07;3.95;;;20.50;1.40;;;21.46;100.00;94699.69;651097;216;31993;-75
2022/06/20 01:38:38;;;;;;;6.47;3.87;;;20.50;1.40;;;21.58;100.00;94700.86;622813;222;31926;-75
2022/06/20 01:44:07;;;;;;;7.95;3.75;;;20.60;1.40;;;21.78;100.00;94695.53;649330;216;32054;-75
2022/06/20 01:46:48;;;;;;;8.23;3.97;;;20.80;1.40;;;21.90;100.00;94693.98;649793;216;31627;-75
2022/06/20 01:49:30;;;;;;;6.62;3.90;;;20.90;1.40;;;21.87;100.00;94694.86;649830;216;31587;-75
2022/06/20 01:52:18;;;;;;;9.13;3.90;;;20.80;1.40;;;21.78;100.00;94706.97;645306;216;31886;-76
2022/06/20 01:55:07;;;;;;;9.00;3.92;;;20.70;1.40;;;21.72;100.00;94709.01;650444;216;32029;-76
2022/06/20 01:57:49;;;;;;;9.73;3.40;;;20.60;1.40;;;21.59;100.00;94706.56;652690;216;31626;-75
2022/06/20 02:00:30;;;;;;;4.35;3.33;;;20.50;1.40;;;21.46;100.00;94708.33;648320;216;31537;-75
2022/06/20 02:03:13;;;;;;;7.32;4.22;;;20.30;1.40;;;21.40;100.00;94704.70;644967;216;31594;-75
2022/06/20 02:05:54;;;;;;;6.62;4.20;;;20.30;1.40;;;21.33;100.00;94702.57;647759;216;31575;-76
2022/06/20 02:08:39;;;;;;;5.55;3.50;;;20.20;1.40;;;21.29;100.00;94706.70;621050;222;31911;-76
2022/06/20 02:11:31;;;;;;;10.20;3.92;;;20.20;1.40;;;21.23;100.00;94705.19;617380;226;31878;-75
2022/06/20 02:14:13;;;;;;;5.70;3.33;;;20.10;1.40;;;21.24;100.00;94709.59;649453;212;31746;-75
2022/06/20 02:16:56;;;;;;;5.18;3.58;;;20.20;1.40;;;21.19;100.00;94710.41;649732;216;31628;-76
2022/06/20 02:19:37;;;;;;;4.43;3.58;;;20.10;1.40;;;21.16;100.00;94712.83;646891;213;31581;-75
2022/06/20 02:22:19;;;;;;;5.07;3.78;;;20.10;1.40;;;21.16;100.00;94709.65;649435;216;32129;-75
2022/06/20 02:25:05;;;;;;;10.80;3.80;;;20.10;1.40;;;21.11;100.00;94711.61;648869;216;32107;-76
2022/06/20 02:27:47;;;;;;;7.28;3.97;;;20.00;1.40;;;21.09;100.00;94710.75;622301;226;31940;-76
2022/06/20 02:30:29;;;;;;;9.70;4.10;;;20.10;1.40;;;21.10;100.00;94713.84;652316;216;31533;-76
2022/06/20 02:35:50;;;;;;;6.03;4.37;;;20.00;1.40;;;21.07;100.00;94709.84;644337;212;31620;-76
2022/06/20 02:38:36;;;;;;;8.90;4.20;;;20.00;1.40;;;21.05;100.00;94703.23;619415;226;32521;-76
2022/06/20 02:41:17;;;;;;;5.85;3.50;;;20.00;1.40;;;21.09;100.00;94703.52;648878;216;32102;-75
2022/06/20 02:43:58;;;;;;;7.12;3.50;;;20.00;1.40;;;21.10;100.00;94699.16;619979;226;32017;-75
2022/06/20 02:49:17;;;;;;;6.65;3.87;;;20.00;1.40;;;20.95;100.00;94702.83;648916;216;31734;-75
2022/06/20 02:51:58;;;;;;;4.68;3.80;;;19.70;1.40;;;20.97;100.00;94698.65;645835;212;31709;-74
2022/06/20 02:54:40;;;;;;;7.53;3.97;;;19.90;1.40;;;21.10;100.00;94695.98;648216;216;31731;-75
2022/06/20 02:57:38;;;;;;;4.68;3.58;;;20.00;1.40;;;21.15;100.00;94699.45;647671;216;31657;-76
2022/06/20 03:00:20;;;;;;;4.47;3.00;;;20.10;1.40;;;21.19;100.00;94692.88;646424;216;32126;-75
2022/06/20 03:03:01;;;;;;;12.07;3.90;;;20.20;1.40;;;21.22;100.00;94693.39;647716;212;42233;-75
2022/06/20 03:05:43;;;;;;;8.82;3.80;;;20.20;1.40;;;21.22;100.00;94691.18;647110;212;31880;-74
2022/06/20 03:08:25;;;;;;;5.60;3.60;;;20.20;1.40;;;21.27;100.00;94689.54;647174;213;31565;-75
2022/06/20 03:11:06;;;;;;;7.28;3.72;;;20.30;1.40;;;21.32;100.00;94692.04;650190;216;31550;-75
2022/06/20 03:13:48;;;;;;;6.80;3.30;;;20.30;1.40;;;21.43;100.00;94691.16;646349;212;31568;-75
2022/06/20 03:16:30;;;;;;;5.72;4.30;;;20.40;1.40;;;21.48;100.00;94691.83;623284;225;31885;-76
2022/06/20 03:19:11;;;;;;;5.50;4.22;;;20.50;1.40;;;21.53;100.00;94690.39;651870;216;31557;-75
2022/06/20 03:21:53;;;;;;;6.25;3.30;;;20.50;1.40;;;21.56;100.00;94694.69;645964;216;31600;-75
2022/06/20 03:24:38;;;;;;;7.32;4.35;;;20.50;1.40;;;21.57;100.00;94692.02;650059;216;34123;-75
2022/06/20 03:27:22;;;;;;;5.32;3.33;;;20.50;1.40;;;21.63;100.00;94690.05;650320;212;31679;-75
2022/06/20 03:30:19;;;;;;;6.90;3.97;;;20.60;1.40;;;21.63;100.00;94697.83;616438;226;32431;-75
2022/06/20 03:35:56;;;;;;;6.97;3.80;;;20.50;1.40;;;21.55;100.00;94693.39;617076;228;31923;-76
2022/06/20 03:38:38;;;;;;;7.37;3.40;;;20.50;1.40;;;21.53;100.00;94691.13;649792;212;31568;-75
2022/06/20 03:41:21;;;;;;;5.97;3.70;;;20.50;1.40;;;21.54;100.00;94693.14;648277;212;42295;-75
2022/06/20 03:44:03;;;;;;;5.35;3.75;;;20.50;1.40;;;21.58;100.00;94689.84;647448;216;32041;-75
2022/06/20 03:46:59;;;;;;;7.93;4.28;;;20.50;1.40;;;21.67;100.00;94695.81;648417;216;31646;-75
2022/06/20 03:49:49;;;;;;;7.97;3.65;;;20.60;1.40;;;21.67;100.00;94699.36;646303;216;31612;-75
2022/06/20 03:52:31;;;;;;;5.95;3.40;;;20.60;1.40;;;21.69;100.00;94700.23;649138;216;42207;-75
2022/06/20 03:55:19;;;;;;;5.22;3.60;;;20.60;1.40;;;21.70;100.00;94698.49;647777;216;31616;-75
2022/06/20 04:00:53;;;;;;;6.07;3.60;;;20.60;1.40;;;21.74;100.00;94700.88;648843;216;31679;-75
2022/06/20 04:06:17;;;;;;;5.60;4.03;;;20.60;1.40;;;21.83;100.00;94702.80;650183;216;31873;-75
2022/06/20 04:11:52;;;;;;;4.10;3.70;;;20.70;1.40;;;21.97;100.00;94706.69;647196;216;31996;-75
2022/06/20 04:14:55;;;;;;;6.30;3.70;;;20.80;1.40;;;22.05;100.00;94710.56;644035;216;31833;-75
2022/06/20 04:20:45;;;;;;;5.62;3.10;;;20.80;1.40;;;22.13;100.00;94720.09;651703;216;31619;-75
2022/06/20 04:23:31;;;;;;;5.87;4.10;;;20.80;1.40;;;21.93;100.00;94733.17;622629;225;32047;-75
2022/06/20 04:26:18;;;;;;;4.95;4.15;;;20.80;1.40;;;22.16;100.00;94735.19;645345;213;31590;-75
2022/06/20 04:29:01;;;;;;;6.30;3.00;;;20.90;1.40;;;22.43;100.00;94745.30;648272;216;31674;-75
2022/06/20 04:32:15;;;;;;;6.35;3.80;;;21.20;1.40;;;22.60;100.00;94745.55;647690;216;31722;-76
2022/06/20 04:35:59;;;;;;;4.67;3.40;;;21.50;1.40;;;22.83;100.00;94752.00;651513;216;31637;-76
2022/06/20 04:38:48;;;;;;;6.90;3.60;;;21.50;1.40;;;22.88;100.00;94752.72;648027;216;31621;-76
2022/06/20 04:41:53;;;;;;;8.05;3.42;;;21.40;1.40;;;23.00;100.00;94756.20;644868;216;31543;-76
2022/06/20 04:44:36;;;;;;;6.93;4.15;;;21.50;1.40;;;22.77;100.00;94752.54;645177;216;31707;-76
2022/06/20 04:47:42;;;;;;;6.12;3.65;;;21.50;1.40;;;23.00;100.00;94755.38;644133;215;31544;-76
2022/06/20 04:50:23;;;;;;;4.40;3.65;;;22.00;1.40;;;23.14;100.00;94765.22;644623;212;31578;-76
2022/06/20 04:53:05;;;;;;;4.78;3.40;;;22.20;1.40;;;23.17;100.00;94767.95;646954;216;32127;-75
2022/06/20 04:55:48;;;;;;;4.03;3.55;;;22.20;1.40;;;23.18;100.00;94765.30;645410;212;42462;-76
2022/06/20 05:01:21;;;;;;;3.90;3.20;;;22.50;1.40;;;23.41;96.88;94776.42;646873;216;32068;-75
2022/06/20 05:04:25;;;;;;;6.47;3.55;;;22.50;1.40;;;23.41;96.23;94773.03;650016;212;31699;-75
2022/06/20 05:07:06;;;;;;;4.63;3.60;;;22.40;1.40;;;23.45;95.25;94776.09;647320;216;31567;-75
2022/06/20 05:09:56;;;;;;;5.20;2.90;;;22.50;1.40;;;23.34;96.39;94783.23;646805;216;31678;-74
2022/06/20 05:12:49;;;;;;;5.80;3.70;;;22.40;1.40;;;23.31;97.98;94789.66;647630;216;31630;-74
2022/06/20 05:15:40;;;;;;;8.18;3.58;;;22.30;1.40;;;23.41;97.29;94792.86;648702;212;33822;-74
2022/06/20 05:18:29;;;;;;;4.10;3.08;;;22.50;1.40;;;23.57;95.87;94806.81;647970;216;31579;-74
2022/06/20 05:21:15;;;;;;;7.35;3.75;;;22.60;1.40;;;23.47;98.48;94814.22;644991;212;31693;-74
2022/06/20 05:23:56;;;;;;;6.05;3.00;;;22.50;1.40;;;23.46;100.00;94822.72;648448;216;42179;-74
2022/06/20 05:26:38;;;;;;;6.57;3.33;;;22.50;1.40;;;23.69;99.99;94823.09;645876;216;31546;-74
2022/06/20 05:29:22;;;;;;;4.45;3.47;;;22.70;1.40;;;23.80;97.45;94829.98;644753;216;32251;-74
2022/06/20 05:32:04;;;;;;;5.43;3.40;;;22.80;1.40;;;23.85;96.03;94827.66;647098;216;31521;-74
2022/06/20 05:35:57;;;;;;;4.20;3.30;;;22.90;1.40;;;23.98;97.49;94838.52;647170;216;42193;-74
2022/06/20 05:38:43;;;;;;;9.05;3.53;;;23.00;1.40;;;24.06;95.80;94836.67;652023;212;31630;-76
2022/06/20 05:41:26;;;;;;;5.35;3.55;;;23.10;1.40;;;24.22;95.05;94837.16;649757;216;31571;-74
2022/06/20 05:44:12;;;;;;;6.82;3.53;;;23.20;1.40;;;24.38;95.53;94844.45;618176;222;32492;-74
2022/06/20 05:46:58;;;;;;;9.40;4.20;;;23.40;1.40;;;24.58;93.70;94847.83;647815;212;31625;-75
2022/06/20 05:49:40;;;;;;;5.18;2.65;;;23.60;1.40;;;24.59;93.64;94849.78;646322;216;32127;-74
2022/06/20 05:55:27;;;;;;;6.53;3.67;;;23.60;1.40;;;24.59;93.56;94863.95;645760;216;31536;-74
2022/06/20 05:58:09;;;;;;;4.15;3.00;;;23.60;1.40;;;24.74;92.92;94864.55;651242;216;32161;-75
2022/06/20 06:00:53;;;;;;;6.68;3.20;;;23.60;1.40;;;24.73;93.71;94863.32;631497;217;31732;-74
2022/06/20 06:03:38;;;;;;;6.32;3.70;;;23.70;1.40;;;24.86;92.34;94867.81;645585;216;31608;-74
2022/06/20 06:06:23;;;;;;;6.47;3.37;;;23.70;1.40;;;24.99;93.34;94867.26;647245;216;31609;-76
2022/06/20 06:09:17;;;;;;;6.12;3.25;;;23.80;1.40;;;25.01;91.04;94872.25;648057;216;34454;-73
2022/06/20 06:11:59;;;;;;;6.40;3.60;;;23.90;1.40;;;24.99;92.80;94880.48;648691;216;31675;-74
2022/06/20 06:14:45;;;;;;;4.20;3.50;;;23.70;1.40;;;24.82;94.37;94884.69;646528;216;31583;-74
2022/06/20 06:17:28;;;;;;;9.55;4.18;;;23.60;1.40;;;24.78;94.35;94887.85;647889;216;31916;-74
2022/06/20 06:20:13;;;;;;;4.28;3.58;;;23.60;1.40;;;24.67;94.77;94891.11;649578;216;31654;-74
2022/06/20 06:22:55;;;;;;;3.85;3.30;;;23.50;1.40;;;24.64;97.34;94891.55;648516;216;31798;-74
2022/06/20 06:25:37;;;;;;;6.25;3.40;;;23.50;1.40;;;24.61;97.95;94894.30;618185;226;31984;-74
2022/06/20 06:28:18;;;;;;;7.32;3.78;;;23.30;1.40;;;24.62;99.93;94899.36;648402;216;31723;-73
2022/06/20 06:31:00;;;;;;;4.70;3.20;;;23.30;1.40;;;24.57;99.80;94893.30;645732;216;31624;-74
2022/06/20 06:35:58;;;;;;;5.60;3.00;;;23.60;1.40;;;24.71;100.00;94904.02;646580;216;31602;-75
2022/06/20 06:38:45;;;;;;;8.60;3.53;;;23.70;1.40;;;24.49;100.00;94912.83;646867;212;31603;-73
2022/06/20 06:41:29;;;;;;;4.95;3.70;;;23.30;1.40;;;24.22;100.00;94914.47;646579;216;31570;-74
2022/06/20 06:44:18;;;;;;;6.25;3.90;;;23.20;1.40;;;24.20;100.00;94914.50;651663;216;31537;-74
2022/06/20 06:47:00;;;;;;;5.87;3.33;;;23.60;1.40;;;24.26;100.00;94922.27;646854;216;31573;-74
2022/06/20 06:49:44;;;;;;;5.40;3.60;;;23.80;1.40;;;24.35;100.00;94922.18;648196;212;31576;-74
2022/06/20 06:52:37;;;;;;;7.07;3.53;;;23.90;1.40;;;24.68;100.00;94931.61;641297;212;31708;-74
2022/06/20 06:55:35;;;;;;;8.75;3.80;;;24.30;1.40;;;25.25;94.06;94926.83;647198;216;31534;-73
2022/06/20 06:58:18;;;;;;;4.62;3.15;;;24.50;1.40;;;25.61;89.86;94930.48;646689;212;31536;-73
2022/06/20 07:03:39;;;;;;;3.97;3.25;;;25.00;1.40;;;26.17;85.86;94932.00;647110;216;31572;-74
2022/06/20 07:06:23;;;;;;;10.73;4.50;;;25.20;1.40;;;26.23;86.40;94936.50;644699;216;31955;-73
2022/06/20 07:09:08;;;;;;;6.87;3.42;;;25.20;1.40;;;26.44;86.40;94936.01;645237;216;32099;-73
2022/06/20 07:12:04;;;;;;;5.77;3.70;;;25.40;1.40;;;26.51;84.70;94933.20;648238;216;31769;-74
2022/06/20 07:14:46;;;;;;;4.15;3.20;;;25.50;1.40;;;26.53;80.99;94934.80;647069;212;31680;-74
2022/06/20 07:17:33;;;;;;;6.37;3.10;;;25.50;1.40;;;26.63;82.13;94934.42;647350;216;31598;-74
2022/06/20 07:20:17;;;;;;;5.75;3.90;;;25.60;1.40;;;26.71;80.62;94932.30;646471;212;31740;-73
2022/06/20 07:23:01;;;;;;;8.50;3.70;;;25.70;1.40;;;26.79;80.10;94939.12;618647;226;31909;-76
2022/06/20 07:25:49;;;;;;;3.35;3.05;;;25.80;1.40;;;26.78;81.31;94938.35;644518;216;31669;-74
2022/06/20 07:28:38;;;;;;;6.53;3.50;;;25.80;1.40;;;26.97;83.37;94943.83;647268;216;32157;-74
2022/06/20 07:31:23;;;;;;;3.43;3.13;;;26.00;1.40;;;27.21;78.50;94941.48;647351;216;31764;-74
2022/06/20 07:35:54;;;;;;;5.62;3.17;;;26.10;1.40;;;27.19;78.58;94946.94;645759;216;32025;-74
2022/06/20 07:38:37;;;;;;;5.65;3.50;;;26.10;1.40;;;27.40;79.12;94951.40;646597;216;31511;-74
2022/06/20 07:41:23;;;;;;;5.80;4.03;;;26.50;1.40;;;27.37;76.09;94952.42;617446;225;31941;-73
2022/06/20 07:44:12;;;;;;;7.40;4.13;;;26.40;1.40;;;27.36;77.08;94951.41;647391;212;31621;-73
2022/06/20 07:46:57;;;;;;;3.40;3.10;;;26.30;1.40;;;27.22;78.50;94957.57;646590;212;31640;-74
2022/06/20 07:49:47;;;;;;;5.03;3.00;;;26.10;1.40;;;27.42;77.06;94958.33;646659;216;31763;-74
2022/06/20 07:55:18;;;;;;;4.97;3.17;;;26.60;1.40;;;27.75;73.21;94957.56;646225;216;31608;-74
2022/06/20 07:58:03;;;;;;;6.50;3.40;;;26.70;1.40;;;27.50;71.50;94964.64;645408;216;42146;-74
2022/06/20 08:00:46;;;;;;;5.95;3.10;;;26.30;1.40;;;27.58;73.77;94963.29;646381;216;31561;-74
2022/06/20 08:03:43;;;;;;;6.53;3.37;;;26.60;1.40;;;27.87;70.14;94966.12;618282;226;31887;-74
2022/06/20 08:06:35;;;;;;;5.20;2.80;;;26.90;1.40;;;27.86;69.51;94963.45;648323;212;31623;-74
2022/06/20 08:09:35;;;;;;;6.30;3.30;;;26.70;1.40;;;27.89;70.26;94974.50;643859;216;31592;-74
2022/06/20 08:14:56;;;;;;;4.10;3.00;;;27.10;1.40;;;28.15;67.32;94975.73;650413;216;31556;-74
2022/06/20 08:17:37;;;;;;;4.62;3.00;;;27.20;1.40;;;27.63;66.75;94982.59;650117;216;31573;-74
2022/06/20 08:20:19;;;;;;;3.55;3.00;;;26.60;1.40;;;27.36;67.51;94998.55;647984;216;31536;-75
2022/06/20 08:23:01;;;;;;;4.68;3.20;;;26.30;1.40;;;27.22;68.44;94997.91;648026;216;32079;-74
2022/06/20 08:25:49;;;;;;;5.60;2.58;;;26.20;1.40;;;27.41;69.44;95000.21;648624;216;31649;-74
2022/06/20 08:28:32;;;;;;;7.68;3.30;;;26.70;1.40;;;28.10;68.00;94998.88;641314;216;32044;-74
2022/06/20 08:31:35;;;;;;;5.12;2.80;;;27.30;1.40;;;28.56;67.18;95003.63;645772;216;31564;-73
2022/06/20 08:38:33;;;;;;;10.40;3.05;;;26.60;1.40;;;27.76;65.42;95008.57;646965;216;31822;-73
2022/06/20 08:41:31;;;;;;;5.45;2.35;;;26.70;1.40;;;28.08;65.04;95011.95;646248;212;32114;-74
2022/06/20 08:44:41;;;;;;;5.68;2.90;;;26.80;1.40;;;27.85;64.42;95009.66;644897;216;31724;-74
2022/06/20 08:47:37;;;;;;;6.28;2.80;;;26.70;1.40;;;27.84;64.26;95012.20;646719;216;31638;-74
2022/06/20 08:50:45;;;;;;;4.93;2.70;;;26.60;1.40;;;27.81;64.62;95013.03;645980;216;31577;-74
2022/06/20 08:54:02;;;;;;;3.83;2.90;;;26.70;1.40;;;27.72;64.74;95016.09;645107;217;33270;-74
2022/06/20 08:56:55;;;;;;;5.45;2.80;;;26.80;1.40;;;27.98;66.14;95009.41;646641;216;31543;-73
2022/06/20 08:59:57;;;;;;;4.03;2.55;;;27.00;1.40;;;28.27;64.58;95003.42;645023;216;31658;-74
2022/06/20 09:03:01;;;;;;;4.03;2.50;;;27.30;1.40;;;28.23;63.27;95005.86;619037;226;32095;-73
2022/06/20 09:05:50;;;;;;;6.00;2.97;;;27.00;1.40;;;28.28;62.21;95007.09;646347;216;42736;-74
2022/06/20 09:08:41;;;;;;;3.45;3.15;;;27.40;1.40;;;28.81;62.52;95009.89;619120;226;32493;-74
2022/06/20 09:12:07;;;;;;;6.15;2.60;;;27.50;1.40;;;28.26;61.94;95013.91;619501;226;32049;-74
2022/06/20 09:14:52;;;;;;;2.60;2.40;;;27.00;1.40;;;28.31;63.44;95015.16;645116;216;42173;-74
2022/06/20 09:18:03;;;;;;;4.03;2.33;;;27.30;1.40;;;28.81;61.12;95010.05;647068;216;42853;-74
2022/06/20 09:20:50;;;;;;;4.00;2.60;;;27.90;1.40;;;29.31;60.99;95005.80;646851;216;31538;-74
2022/06/20 09:23:44;;;;;;;3.58;2.15;;;28.50;1.40;;;29.15;59.72;95002.30;647053;216;31848;-74
2022/06/20 09:26:56;;;;;;;3.70;3.10;;;27.90;1.40;;;29.12;63.53;95012.47;645844;216;31569;-74
2022/06/20 09:29:55;;;;;;;2.95;2.60;;;28.10;1.40;;;30.48;60.43;95001.74;630382;221;32129;-74
2022/06/20 09:36:14;;;;;;;4.05;2.72;;;30.10;1.40;;;30.99;58.10;94999.89;646490;216;31860;-73
2022/06/20 09:39:02;;;;;;;3.92;3.15;;;29.20;1.40;;;30.20;56.42;95003.09;647122;216;32458;-74
2022/06/20 09:41:59;;;;;;;3.75;2.55;;;28.40;1.40;;;29.36;57.61;95006.56;647513;216;31545;-74
2022/06/20 09:47:35;;;;;;;7.03;2.90;;;27.30;1.40;;;29.12;59.00;95001.27;645908;216;42336;-74
2022/06/20 09:50:37;;;;;;;2.80;2.53;;;28.80;1.40;;;29.96;56.48;95009.39;646845;216;31545;-75
2022/06/20 09:53:25;;;;;;;3.80;2.30;;;28.30;1.40;;;29.74;58.37;95006.67;638571;216;31762;-74
2022/06/20 09:56:13;;;;;;;2.87;2.35;;;28.30;1.40;;;30.55;54.46;94997.89;646507;212;31559;-73
2022/06/20 09:59:07;;;;;;;4.43;3.08;;;29.70;1.40;;;30.16;55.08;95001.63;647218;216;31614;-73
2022/06/20 10:01:55;;;;;;;3.00;2.55;;;28.60;1.40;;;29.47;55.72;94998.63;645444;216;31553;-74
2022/06/20 10:04:41;;;;;;;6.95;2.97;;;27.80;1.40;;;29.38;57.88;95000.79;646466;216;31717;-74
2022/06/20 10:07:50;;;;;;;3.62;2.80;;;28.30;1.40;;;30.13;58.41;94997.31;617496;225;31926;-74
2022/06/20 10:10:54;;;;;;;7.03;3.17;;;28.30;1.40;;;29.76;58.21;95001.59;647224;216;31811;-74
2022/06/20 10:13:56;;;;;;;2.92;2.62;;;28.20;1.40;;;30.57;56.12;94992.83;646934;216;31530;-73
2022/06/20 10:16:54;;;;;;;4.45;3.60;;;30.90;1.40;;;31.51;53.52;94988.36;644872;216;32028;-74
2022/06/20 10:22:13;;;;;;;4.57;2.90;;;28.20;1.40;;;30.66;53.92;94987.04;647104;216;31564;-74
2022/06/20 10:25:18;;;;;;;2.80;2.35;;;30.10;1.40;;;31.61;53.37;94979.84;647411;216;31618;-74
2022/06/20 10:28:12;;;;;;;2.90;2.58;;;30.90;1.40;;;31.63;50.81;94981.96;646455;216;31537;-74
2022/06/20 10:31:01;;;;;;;6.72;2.83;;;29.60;1.40;;;31.25;51.09;94978.92;647421;216;31794;-74
2022/06/20 10:36:13;;;;;;;3.83;2.60;;;32.00;1.40;;;32.25;49.77;94980.89;645955;212;31658;-72
2022/06/20 10:39:00;;;;;;;5.62;2.65;;;30.90;1.40;;;32.42;51.14;94983.31;615912;225;32066;-74
2022/06/20 10:41:56;;;;;;;6.35;2.42;;;32.00;1.40;;;32.04;46.90;94979.17;647099;216;31551;-73
2022/06/20 10:45:12;;;;;;;4.32;2.50;;;30.60;1.40;;;32.10;47.25;95004.03;647116;216;31577;-75
2022/06/20 10:48:25;;;;;;;3.10;2.25;;;30.50;1.40;;;31.63;48.49;94990.71;645254;216;31567;-75
2022/06/20 10:51:40;;;;;;;3.08;2.78;;;30.30;1.40;;;31.67;48.85;94986.41;647377;216;32293;-74
2022/06/20 10:54:39;;;;;;;3.80;2.80;;;31.10;1.40;;;33.04;47.83;94984.27;645734;212;32056;-74
2022/06/20 10:57:25;;;;;;;3.55;2.35;;;31.70;1.40;;;32.33;48.28;94985.39;646379;216;31571;-75
2022/06/20 11:00:17;;;;;;;2.75;2.40;;;30.60;1.40;;;32.60;47.12;94980.91;647253;216;31687;-76
2022/06/20 11:03:17;;;;;;;4.75;2.35;;;31.30;1.40;;;32.42;47.85;94980.62;646646;212;31562;-75
2022/06/20 11:08:38;;;;;;;5.37;2.60;;;31.30;1.40;;;33.65;45.61;94970.80;645800;212;31596;-74
2022/06/20 11:11:42;;;;;;;4.95;3.25;;;32.10;1.40;;;34.08;45.75;94971.17;646509;216;31578;-75
2022/06/20 11:14:31;;;;;;;5.00;2.72;;;31.50;1.40;;;33.40;45.70;94976.54;619583;226;42645;-75
2022/06/20 11:20:22;;;;;;;3.12;2.83;;;31.70;1.40;;;34.21;44.91;94966.77;646614;216;31726;-75
2022/06/20 11:23:28;;;;;;;2.90;2.60;;;32.30;1.40;;;34.01;43.43;94963.08;646987;216;31554;-75
2022/06/20 11:29:25;;;;;;;2.70;2.50;;;29.70;1.40;;;31.07;48.88;94973.77;647276;216;31583;-74
2022/06/20 11:32:26;;;;;;;3.62;3.05;;;28.90;1.40;;;30.54;50.37;94961.75;647421;216;31631;-77
2022/06/20 11:35:57;;;;;;;4.07;2.60;;;28.80;1.40;;;30.27;51.77;94964.91;619470;226;31908;-74
2022/06/20 11:38:45;;;;;;;5.53;2.40;;;29.20;1.40;;;31.52;48.79;94961.25;647064;216;31527;-75
2022/06/20 11:41:30;;;;;;;4.90;3.40;;;30.20;1.40;;;32.67;47.55;94958.33;647095;212;31670;-75
2022/06/20 11:44:24;;;;;;;6.12;3.78;;;31.00;1.40;;;33.25;46.84;94949.37;647415;216;31586;-74
2022/06/20 11:47:09;;;;;;;3.47;2.70;;;30.90;1.40;;;31.44;48.57;94954.97;646303;212;31532;-74
2022/06/20 11:50:03;;;;;;;3.95;3.22;;;29.10;1.40;;;30.70;51.66;94963.41;646257;216;31562;-74
2022/06/20 11:55:28;;;;;;;5.18;2.60;;;28.70;1.40;;;30.75;50.85;94954.42;646043;212;31678;-74
2022/06/20 12:01:17;;;;;;;4.20;2.80;;;30.20;1.40;;;32.66;48.39;94949.44;647174;216;31795;-75
2022/06/20 12:03:59;;;;;;;3.00;2.70;;;30.30;1.40;;;31.84;51.62;94951.70;647807;216;31603;-75
2022/06/20 12:06:42;;;;;;;4.90;2.80;;;30.00;1.40;;;32.68;49.71;94944.31;645043;216;31576;-75
2022/06/20 12:12:42;;;;;;;3.90;2.55;;;30.00;1.40;;;31.93;50.19;94943.80;647165;216;31624;-75
2022/06/20 12:15:46;;;;;;;4.97;2.72;;;29.60;1.40;;;31.44;50.46;94946.20;647177;216;32224;-74
2022/06/20 12:18:35;;;;;;;5.22;3.08;;;29.70;1.40;;;31.21;50.49;94946.27;646992;212;31638;-74
2022/06/20 12:24:06;;;;;;;3.78;3.10;;;30.50;1.40;;;33.36;48.55;94931.26;619031;226;32403;-75
2022/06/20 12:26:49;;;;;;;2.90;2.50;;;31.00;1.40;;;33.91;45.70;94928.98;647151;216;31562;-75
2022/06/20 12:29:34;;;;;;;3.12;2.60;;;31.20;1.40;;;34.71;43.70;94918.02;646890;216;31588;-74
2022/06/20 12:32:14;;;;;;;6.43;3.58;;;31.80;1.40;;;36.76;41.64;94913.27;615900;224;42569;-75
2022/06/20 12:35:51;;;;;;;3.12;2.85;;;33.40;1.40;;;36.83;41.47;94921.06;646988;212;31642;-75
2022/06/20 12:38:34;;;;;;;3.65;2.42;;;32.70;1.40;;;35.29;43.60;94918.13;646802;216;31639;-74
2022/06/20 12:41:15;;;;;;;4.78;2.90;;;32.10;1.40;;;34.39;44.48;94914.13;646711;216;31592;-75
2022/06/20 12:44:20;;;;;;;6.78;3.40;;;31.30;1.40;;;35.36;43.00;94913.62;646241;216;31601;-75
2022/06/20 12:47:23;;;;;;;4.12;3.25;;;32.90;1.40;;;35.43;41.52;94904.12;646086;216;31568;-75
2022/06/20 12:50:09;;;;;;;5.97;2.90;;;32.50;1.40;;;35.31;43.21;94899.52;646975;216;31622;-74
2022/06/20 13:20:22;;;;;;;2.60;2.40;;;32.30;1.40;;;34.49;43.56;94878.45;669249;211;28766;-74
2022/06/20 13:26:19;;;;;;;4.20;2.58;;;31.60;1.40;;;34.17;43.17;94867.73;645732;216;31862;-75
2022/06/20 13:29:16;;;;;;;4.30;2.72;;;31.00;1.40;;;34.33;43.75;94864.87;647767;216;31950;-75
2022/06/20 13:32:04;;;;;;;4.50;2.80;;;31.40;1.40;;;35.25;42.98;94860.74;647063;216;31697;-75
2022/06/20 13:35:57;;;;;;;3.50;2.50;;;32.90;1.40;;;36.50;39.94;94852.34;647447;216;31581;-73
2022/06/20 13:38:39;;;;;;;5.35;2.80;;;32.90;1.40;;;34.79;42.88;94853.36;645702;212;31798;-75
2022/06/20 13:41:24;;;;;;;3.25;2.85;;;31.90;1.40;;;34.56;43.02;94854.38;646403;216;31714;-73
2022/06/20 13:44:56;;;;;;;4.05;2.80;;;31.60;1.40;;;34.79;40.90;94841.36;646633;216;32100;-74
2022/06/20 13:47:40;;;;;;;4.10;3.15;;;32.20;1.40;;;36.06;39.65;94843.79;619222;226;32463;-73
2022/06/20 13:50:26;;;;;;;2.75;2.50;;;32.00;1.40;;;34.21;42.03;94824.54;647008;216;32066;-75